Home   Weather   City of Ithaca   Past weeks
Flag for USA

Past Weather in City of Ithaca, New York, USA — July 2016

Currently: 74 °F. Passing clouds. (Weather station: Binghamton Regional Airport, USA). See more current weather

July 2016 Weather in City of Ithaca — Graph

°F

High & Low Weather Summary for July 2016

 TemperatureHumidityPressure
High91 °F (Jul 22, 2:53 pm)100% (Jul 8, 6:00 am)30.27 "Hg (Jul 8, 6:00 am)
Low53 °F (Jul 3, 5:53 am)22% (Jul 21, 5:53 pm)29.72 "Hg (Jul 9, 1:53 pm)
Average71 °F68%29.97 "Hg
* Reported Jul 1 12:53 am — Jul 31 11:53 pm, City of Ithaca. Weather by CustomWeather, © 2024

Note: Actual official high and low records may vary slightly from our data, if they occured in-between our weather recording intervals... More about our weather records

City of Ithaca Weather History for July 1, 2016

Scroll right to see more
 ConditionsComfort  
Time TempWeatherWind HumidityBarometerVisibility
12:53 am
Fri, Jul 1
63 °FPassing clouds.5 mph63%30.01 "Hg10 mi
1:53 am62 °FPassing clouds.5 mph67%30.00 "Hg10 mi
2:53 am63 °FPassing clouds.5 mph65%29.98 "Hg10 mi
3:53 am60 °FPassing clouds.3 mph72%29.98 "Hg10 mi
4:53 am58 °FClear.5 mph78%29.98 "Hg10 mi
5:53 am58 °FPassing clouds.3 mph81%29.98 "Hg10 mi
6:53 am58 °FPassing clouds.5 mph84%29.98 "Hg10 mi
7:53 am60 °FPassing clouds.7 mph80%29.97 "Hg10 mi
8:53 am65 °FPassing clouds.6 mph73%29.96 "Hg10 mi
9:53 am69 °FPassing clouds.8 mph70%29.93 "Hg10 mi
10:53 am71 °FPassing clouds.9 mph68%29.92 "Hg10 mi
11:53 am73 °FBroken clouds.16 mph69%29.91 "Hg10 mi
1:00 pm73 °FCloudy.12 mph69%29.92 "Hg10 mi
1:53 pm68 °FLight rain. Cloudy.10 mph87%29.88 "Hg10 mi
2:53 pm72 °FBroken clouds.12 mph73%29.87 "Hg10 mi
3:53 pm71 °FSunny.13 mph68%29.85 "Hg10 mi
4:53 pm74 °FPassing clouds.12 mph62%29.85 "Hg10 mi
5:53 pm74 °FPartly sunny.8 mph60%29.85 "Hg10 mi
6:53 pm73 °FSunny.12 mph55%29.85 "Hg10 mi
7:53 pm70 °FScattered clouds.5 mph61%29.85 "Hg10 mi
8:53 pm65 °FThundershowers. Partly sunny.6 mph78%29.85 "Hg10 mi
9:53 pm65 °FPassing clouds.6 mph73%29.88 "Hg10 mi
10:53 pm63 °FClear.9 mph73%29.90 "Hg10 mi
11:53 pm60 °FPassing clouds.9 mph78%29.92 "Hg10 mi
Weather by CustomWeather, © 2024

See weather overview